createdAt,value
2023-02-02T00:02:02.664Z,4.60
2023-02-02T00:04:34.421Z,4.60
2023-02-02T00:07:03.023Z,4.60
2023-02-02T00:09:32.310Z,4.50
2023-02-02T00:12:00.351Z,4.50
2023-02-02T00:14:27.605Z,4.50
2023-02-02T00:16:56.134Z,4.50
2023-02-02T00:19:26.467Z,4.50
2023-02-02T00:21:54.751Z,4.40
2023-02-02T00:24:21.976Z,4.40
2023-02-02T00:26:51.280Z,4.40
2023-02-02T00:29:23.920Z,4.40
2023-02-02T00:31:51.018Z,4.40
2023-02-02T00:34:18.343Z,4.30
2023-02-02T00:36:45.998Z,4.30
2023-02-02T00:39:20.262Z,4.30
2023-02-02T00:41:47.560Z,4.30
2023-02-02T00:44:33.147Z,4.30
2023-02-02T00:46:59.974Z,4.30
2023-02-02T00:49:26.761Z,4.30
2023-02-02T00:54:20.736Z,4.40
2023-02-02T00:56:47.814Z,4.30
2023-02-02T00:59:14.493Z,4.30
2023-02-02T01:01:41.299Z,4.30
2023-02-02T01:04:08.145Z,4.40
2023-02-02T01:06:34.994Z,4.40
2023-02-02T01:09:01.826Z,4.30
2023-02-02T01:11:28.599Z,4.30
2023-02-02T01:13:55.379Z,4.30
2023-02-02T01:16:25.370Z,4.30
2023-02-02T01:21:19.937Z,4.30
2023-02-02T01:23:46.937Z,4.20
2023-02-02T01:26:14.225Z,4.30
2023-02-02T01:28:41.613Z,4.30
2023-02-02T01:31:11.375Z,4.30
2023-02-02T01:33:38.529Z,4.20
2023-02-02T01:36:11.137Z,4.20
2023-02-02T01:38:37.987Z,4.20
2023-02-02T01:41:05.283Z,4.20
2023-02-02T01:44:01.078Z,4.30
2023-02-02T01:46:29.365Z,4.20
2023-02-02T01:49:05.018Z,4.30
2023-02-02T01:51:42.939Z,4.30
2023-02-02T01:54:14.275Z,4.20
2023-02-02T01:56:46.170Z,4.20
2023-02-02T01:59:15.871Z,4.20
2023-02-02T02:01:43.918Z,4.20
2023-02-02T02:04:11.699Z,4.20
2023-02-02T02:06:38.664Z,4.20
2023-02-02T02:09:06.964Z,4.20
2023-02-02T02:11:35.195Z,4.20
2023-02-02T02:14:27.544Z,4.20
2023-02-02T02:17:32.068Z,4.20
2023-02-02T02:20:45.417Z,4.20
2023-02-02T02:24:29.324Z,4.10
2023-02-02T02:27:23.666Z,4.20
2023-02-02T02:30:15.029Z,4.20
2023-02-02T02:33:23.448Z,4.30
2023-02-02T02:35:59.569Z,4.30
2023-02-02T02:38:49.693Z,4.30
2023-02-02T02:41:32.439Z,4.30
2023-02-02T02:44:08.365Z,4.30
2023-02-02T02:46:36.921Z,4.30
2023-02-02T02:49:03.879Z,4.30
2023-02-02T02:51:48.931Z,4.40
2023-02-02T02:54:38.047Z,4.40
2023-02-02T02:57:22.873Z,4.40
2023-02-02T03:00:11.094Z,4.40
2023-02-02T03:03:05.265Z,4.50
2023-02-02T03:06:00.194Z,4.60
2023-02-02T03:08:52.953Z,4.60
2023-02-02T03:11:20.735Z,4.60
2023-02-02T03:13:48.850Z,4.60
2023-02-02T03:16:16.460Z,4.60
2023-02-02T03:18:43.381Z,4.60
2023-02-02T03:21:10.067Z,4.70
2023-02-02T03:23:36.852Z,4.70
2023-02-02T03:26:03.609Z,4.70
2023-02-02T03:28:30.949Z,4.70
2023-02-02T03:31:01.155Z,4.70
2023-02-02T03:33:28.271Z,4.70
2023-02-02T03:35:55.020Z,4.80
2023-02-02T03:38:21.768Z,4.80
2023-02-02T03:40:48.519Z,4.80
2023-02-02T03:43:21.295Z,4.80
2023-02-02T03:45:48.274Z,4.80
2023-02-02T03:50:42.101Z,4.90
2023-02-02T03:53:08.853Z,4.80
2023-02-02T03:55:35.591Z,4.90
2023-02-02T03:58:02.318Z,4.90
2023-02-02T04:00:29.068Z,4.90
2023-02-02T04:02:55.802Z,4.90
2023-02-02T04:05:22.836Z,4.90
2023-02-02T04:10:17.979Z,4.90
2023-02-02T04:12:44.718Z,4.90
2023-02-02T04:15:11.611Z,4.90
2023-02-02T04:17:38.548Z,4.90
2023-02-02T04:20:06.682Z,4.90
2023-02-02T04:22:33.907Z,4.90
2023-02-02T04:25:00.617Z,4.90
2023-02-02T04:27:27.440Z,4.90
2023-02-02T04:29:54.145Z,4.90
2023-02-02T04:32:20.830Z,4.90
2023-02-02T04:34:47.574Z,4.90
2023-02-02T04:37:14.297Z,4.90
2023-02-02T04:39:41.011Z,4.90
2023-02-02T04:42:07.763Z,4.90
2023-02-02T04:44:34.487Z,4.90
2023-02-02T04:47:01.234Z,4.90
2023-02-02T04:49:27.947Z,4.90
2023-02-02T04:51:54.678Z,5.00
2023-02-02T04:54:21.602Z,5.00
2023-02-02T04:56:48.385Z,5.00
2023-02-02T04:59:15.067Z,5.00
2023-02-02T05:01:41.913Z,5.00
2023-02-02T05:04:08.719Z,5.00
2023-02-02T05:06:35.521Z,5.00
2023-02-02T05:09:02.236Z,5.00
2023-02-02T05:11:29.019Z,5.00
2023-02-02T05:13:55.721Z,5.00
2023-02-02T05:16:23.665Z,5.00
2023-02-02T05:18:52.164Z,5.10
2023-02-02T05:21:19.656Z,5.10
2023-02-02T05:23:46.545Z,5.10
2023-02-02T05:26:18.573Z,5.10
2023-02-02T05:28:45.753Z,5.10
2023-02-02T05:31:12.724Z,5.20
2023-02-02T05:33:39.807Z,5.20
2023-02-02T05:36:07.381Z,5.20
2023-02-02T05:38:34.539Z,5.20
2023-02-02T05:41:01.419Z,5.20
2023-02-02T05:43:29.810Z,5.20
2023-02-02T05:45:56.743Z,5.20
2023-02-02T05:48:23.549Z,5.20
2023-02-02T05:51:02.103Z,5.20
2023-02-02T05:53:30.753Z,5.20
2023-02-02T05:55:57.471Z,5.20
2023-02-02T05:58:24.249Z,5.20
2023-02-02T06:00:51.014Z,5.20
2023-02-02T06:08:12.151Z,5.20
2023-02-02T06:10:40.670Z,5.20
2023-02-02T06:13:08.656Z,5.20
2023-02-02T06:15:36.182Z,5.20
2023-02-02T06:20:30.118Z,5.20
2023-02-02T06:22:56.834Z,5.10
2023-02-02T06:25:23.960Z,5.10
2023-02-02T06:27:54.837Z,5.10
2023-02-02T06:30:22.535Z,5.10
2023-02-02T06:32:49.285Z,5.00
2023-02-02T06:35:16.326Z,5.00
2023-02-02T06:37:43.041Z,5.00
2023-02-02T06:40:10.890Z,5.00
2023-02-02T06:42:37.623Z,5.00
2023-02-02T06:45:05.100Z,4.90
2023-02-02T06:47:34.604Z,4.90
2023-02-02T06:50:01.323Z,4.90
2023-02-02T06:52:28.047Z,4.90
2023-02-02T06:54:54.850Z,4.90
2023-02-02T06:57:21.641Z,4.80
2023-02-02T06:59:48.374Z,4.70
2023-02-02T07:02:15.210Z,4.70
2023-02-02T07:04:42.039Z,4.70
2023-02-02T07:07:08.858Z,4.70
2023-02-02T07:09:35.734Z,4.70
2023-02-02T07:12:02.540Z,4.60
2023-02-02T07:14:29.237Z,4.60
2023-02-02T07:16:55.950Z,4.50
2023-02-02T07:19:22.702Z,4.50
2023-02-02T07:21:49.464Z,4.50
2023-02-02T07:24:16.302Z,4.50
2023-02-02T07:26:43.050Z,4.50
2023-02-02T07:29:13.972Z,4.40
2023-02-02T07:31:41.360Z,4.40
2023-02-02T07:34:08.133Z,4.40
2023-02-02T07:36:34.919Z,4.40
2023-02-02T07:39:05.393Z,4.40
2023-02-02T07:41:34.582Z,4.40
2023-02-02T07:44:01.795Z,4.40
2023-02-02T07:46:28.604Z,4.40
2023-02-02T07:48:56.357Z,4.40
2023-02-02T07:51:24.375Z,4.30
2023-02-02T07:53:53.622Z,4.30
2023-02-02T07:56:23.175Z,4.30
2023-02-02T07:58:52.533Z,4.30
2023-02-02T08:01:20.647Z,4.30
2023-02-02T08:03:47.413Z,4.30
2023-02-02T08:06:20.360Z,4.30
2023-02-02T08:08:48.191Z,4.30
2023-02-02T08:11:16.926Z,4.40
2023-02-02T08:13:44.028Z,4.40
2023-02-02T08:16:12.035Z,4.40
2023-02-02T08:18:39.123Z,4.40
2023-02-02T08:21:10.716Z,4.40
2023-02-02T08:23:39.188Z,4.40
2023-02-02T08:26:08.362Z,4.40
2023-02-02T08:28:36.454Z,4.40
2023-02-02T08:31:17.009Z,4.40
2023-02-02T08:33:44.215Z,4.40
2023-02-02T08:36:19.831Z,4.40
2023-02-02T08:38:46.759Z,4.30
2023-02-02T08:41:17.304Z,4.40
2023-02-02T08:43:44.647Z,4.40
2023-02-02T08:46:14.599Z,4.40
2023-02-02T08:48:42.095Z,4.40
2023-02-02T08:51:11.734Z,4.40
2023-02-02T08:53:38.808Z,4.40
2023-02-02T08:56:10.912Z,4.40
2023-02-02T08:58:38.211Z,4.40
2023-02-02T09:01:06.878Z,4.40
2023-02-02T09:03:34.105Z,4.40
2023-02-02T09:06:08.833Z,4.40
2023-02-02T09:08:35.791Z,4.40
2023-02-02T09:11:11.150Z,4.50
2023-02-02T09:13:39.559Z,4.50
2023-02-02T09:16:08.908Z,4.50
2023-02-02T09:18:36.147Z,4.50
2023-02-02T09:21:06.379Z,4.50
2023-02-02T09:23:35.000Z,4.50
2023-02-02T09:26:23.354Z,4.60
2023-02-02T09:29:02.693Z,4.60
2023-02-02T09:31:34.237Z,4.60
2023-02-02T09:34:03.139Z,4.60
2023-02-02T09:36:29.956Z,4.60
2023-02-02T09:38:56.793Z,4.60
2023-02-02T09:41:38.653Z,4.60
2023-02-02T09:44:20.732Z,4.60
2023-02-02T09:47:20.941Z,4.60
2023-02-02T09:49:56.823Z,4.70
2023-02-02T09:52:47.901Z,4.80
2023-02-02T09:55:34.869Z,4.80
2023-02-02T09:58:21.745Z,4.70
2023-02-02T10:01:02.949Z,4.80
2023-02-02T10:03:45.395Z,4.80
2023-02-02T10:06:28.088Z,4.70
2023-02-02T10:09:03.105Z,4.80
2023-02-02T10:11:41.351Z,4.80
2023-02-02T10:14:22.961Z,4.90
2023-02-02T10:16:54.558Z,4.90
2023-02-02T10:19:25.314Z,4.90
2023-02-02T10:21:57.672Z,4.90
2023-02-02T10:24:27.864Z,4.80
2023-02-02T10:26:57.893Z,4.90
2023-02-02T10:29:24.655Z,4.90
2023-02-02T10:32:06.656Z,5.00
2023-02-02T10:34:42.253Z,5.00
2023-02-02T10:37:17.979Z,5.10
2023-02-02T10:39:44.660Z,5.10
2023-02-02T10:42:45.637Z,5.10
2023-02-02T10:45:20.905Z,5.10
2023-02-02T10:47:47.775Z,5.20
2023-02-02T10:50:16.415Z,5.20
2023-02-02T10:53:00.386Z,5.30
2023-02-02T10:55:39.459Z,5.30
2023-02-02T10:58:12.090Z,5.30
2023-02-02T11:00:54.679Z,5.30
2023-02-02T11:03:25.876Z,5.30
2023-02-02T11:06:11.805Z,5.30
2023-02-02T11:08:47.035Z,5.40
2023-02-02T11:11:29.362Z,5.30
2023-02-02T11:14:08.482Z,5.30
2023-02-02T11:16:43.272Z,5.40
2023-02-02T11:19:19.931Z,5.50
2023-02-02T11:21:56.565Z,5.50
2023-02-02T11:27:07.621Z,5.70
2023-02-02T11:29:54.621Z,5.70
2023-02-02T11:32:31.049Z,5.70
2023-02-02T11:35:23.625Z,5.70
2023-02-02T11:38:02.452Z,5.60
2023-02-02T11:40:46.296Z,5.70
2023-02-02T11:43:30.902Z,5.70
2023-02-02T11:46:03.525Z,5.80
2023-02-02T11:48:39.578Z,5.80
2023-02-02T11:51:08.140Z,5.70
2023-02-02T11:53:42.114Z,5.80
2023-02-02T11:56:27.469Z,5.80
2023-02-02T11:58:56.606Z,5.80
2023-02-02T12:01:29.507Z,5.80
2023-02-02T12:06:47.527Z,5.80
2023-02-02T12:09:22.974Z,5.80
2023-02-02T12:12:02.157Z,5.90
2023-02-02T12:14:31.852Z,5.90
2023-02-02T12:17:26.536Z,6.00
2023-02-02T12:20:20.632Z,6.10
2023-02-02T12:22:53.418Z,6.00
2023-02-02T12:25:29.227Z,6.10
2023-02-02T12:28:17.818Z,6.00
2023-02-02T12:30:44.585Z,6.00
2023-02-02T12:33:35.719Z,6.00
2023-02-02T12:36:19.826Z,6.10
2023-02-02T12:38:57.841Z,6.10
2023-02-02T12:41:49.492Z,6.00
2023-02-02T12:44:40.524Z,5.90
2023-02-02T12:47:28.919Z,6.00
2023-02-02T12:50:14.151Z,6.00
2023-02-02T12:52:49.965Z,6.00
2023-02-02T12:55:23.428Z,6.00
2023-02-02T12:57:56.542Z,5.90
2023-02-02T13:00:38.398Z,5.90
2023-02-02T13:03:20.994Z,5.90
2023-02-02T13:06:10.518Z,5.90
2023-02-02T13:09:06.577Z,5.90
2023-02-02T13:11:33.269Z,5.90
2023-02-02T13:14:16.191Z,5.90
2023-02-02T13:16:50.035Z,5.90
2023-02-02T13:19:40.132Z,5.90
2023-02-02T13:22:12.299Z,5.90
2023-02-02T13:24:42.348Z,5.80
2023-02-02T13:27:12.898Z,5.80
2023-02-02T13:29:57.365Z,5.70
2023-02-02T13:32:30.633Z,5.70
2023-02-02T13:35:01.178Z,5.60
2023-02-02T13:37:42.564Z,5.70
2023-02-02T13:40:28.979Z,5.60
2023-02-02T13:43:33.245Z,5.60
2023-02-02T13:46:21.535Z,5.60
2023-02-02T13:49:00.474Z,5.60
2023-02-02T13:51:45.276Z,5.60
2023-02-02T13:54:36.913Z,5.50
2023-02-02T13:57:40.664Z,5.50
2023-02-02T14:00:13.659Z,5.50
2023-02-02T14:02:53.902Z,5.40
2023-02-02T14:05:27.087Z,5.40
2023-02-02T14:08:00.428Z,5.40
2023-02-02T14:10:31.727Z,5.50
2023-02-02T14:13:30.043Z,5.50
2023-02-02T14:15:59.492Z,5.40
2023-02-02T14:18:52.177Z,5.40
2023-02-02T14:21:34.207Z,5.30
2023-02-02T14:24:27.368Z,5.40
2023-02-02T14:26:54.106Z,5.40
2023-02-02T14:29:32.509Z,5.30
2023-02-02T14:32:19.188Z,5.30
2023-02-02T14:34:46.523Z,5.30
2023-02-02T14:37:36.680Z,5.20
2023-02-02T14:40:06.488Z,5.20
2023-02-02T14:43:26.166Z,5.20
2023-02-02T14:46:13.753Z,5.20
2023-02-02T14:48:47.710Z,5.20
2023-02-02T14:51:23.872Z,5.20
2023-02-02T14:53:53.919Z,5.20
2023-02-02T14:56:33.813Z,5.20
2023-02-02T14:59:05.389Z,5.20
2023-02-02T15:01:35.275Z,5.20
2023-02-02T15:04:20.889Z,5.20
2023-02-02T15:06:49.163Z,5.10
2023-02-02T15:09:23.286Z,5.10
2023-02-02T15:12:01.092Z,5.10
2023-02-02T15:14:36.568Z,5.10
2023-02-02T15:17:07.095Z,5.10
2023-02-02T15:19:42.551Z,5.10
2023-02-02T15:22:39.881Z,5.10
2023-02-02T15:25:26.348Z,5.10
2023-02-02T15:27:58.214Z,5.00
2023-02-02T15:30:28.337Z,5.00
2023-02-02T15:32:56.381Z,4.90
2023-02-02T15:35:31.002Z,4.90
2023-02-02T15:38:04.824Z,4.90
2023-02-02T15:40:32.269Z,4.90
2023-02-02T15:43:04.390Z,4.90
2023-02-02T15:45:33.546Z,4.90
2023-02-02T15:48:04.010Z,4.90
2023-02-02T15:50:30.954Z,4.90
2023-02-02T15:52:58.738Z,4.90
2023-02-02T15:55:31.985Z,4.80
2023-02-02T15:57:59.105Z,4.80
2023-02-02T16:00:29.509Z,4.80
2023-02-02T16:03:11.586Z,4.80
2023-02-02T16:05:38.232Z,4.80
2023-02-02T16:08:11.587Z,4.80
2023-02-02T16:10:38.599Z,4.80
2023-02-02T16:13:05.376Z,4.80
2023-02-02T16:15:32.901Z,4.70
2023-02-02T16:18:02.523Z,4.70
2023-02-02T16:20:33.378Z,4.70
2023-02-02T16:23:04.800Z,4.70
2023-02-02T16:25:36.815Z,4.70
2023-02-02T16:28:04.296Z,4.70
2023-02-02T16:30:38.630Z,4.70
2023-02-02T16:33:27.068Z,4.70
2023-02-02T16:35:54.332Z,4.70
2023-02-02T16:38:34.162Z,4.70
2023-02-02T16:41:09.138Z,4.70
2023-02-02T16:43:44.740Z,4.70
2023-02-02T16:46:12.886Z,4.60
2023-02-02T16:48:41.065Z,4.70
2023-02-02T16:51:17.008Z,4.60
2023-02-02T16:54:00.208Z,4.60
2023-02-02T16:56:30.197Z,4.70
2023-02-02T16:59:00.110Z,4.60
2023-02-02T17:01:42.412Z,4.60
2023-02-02T17:04:19.639Z,4.60
2023-02-02T17:06:52.699Z,4.60
2023-02-02T17:09:32.543Z,4.60
2023-02-02T17:12:05.822Z,4.60
2023-02-02T17:14:36.004Z,4.60
2023-02-02T17:17:05.232Z,4.60
2023-02-02T17:19:32.466Z,4.60
2023-02-02T17:22:02.031Z,4.60
2023-02-02T17:24:29.806Z,4.60
2023-02-02T17:26:56.780Z,4.50
2023-02-02T17:29:23.634Z,4.50
2023-02-02T17:31:51.918Z,4.50
2023-02-02T17:39:13.623Z,4.50
2023-02-02T17:41:40.543Z,4.50
2023-02-02T17:44:09.291Z,4.50
2023-02-02T17:46:38.341Z,4.50
2023-02-02T17:51:40.996Z,4.50
2023-02-02T17:54:14.832Z,4.50
2023-02-02T17:56:43.106Z,4.50
2023-02-02T17:59:10.097Z,4.50
2023-02-02T18:01:39.415Z,4.40
2023-02-02T18:04:06.333Z,4.40
2023-02-02T18:09:00.320Z,4.40
2023-02-02T18:11:27.225Z,4.40
2023-02-02T18:13:54.014Z,4.40
2023-02-02T18:18:48.261Z,4.40
2023-02-02T18:23:42.445Z,4.50
2023-02-02T18:26:11.444Z,4.40
2023-02-02T18:28:38.935Z,4.50
2023-02-02T18:31:11.715Z,4.50
2023-02-02T18:33:40.620Z,4.50
2023-02-02T18:36:11.784Z,4.50
2023-02-02T18:38:46.257Z,4.50
2023-02-02T18:41:14.899Z,4.60
2023-02-02T18:43:42.025Z,4.60
2023-02-02T18:46:13.768Z,4.60
2023-02-02T18:48:41.675Z,4.60
2023-02-02T18:51:16.043Z,4.60
2023-02-02T18:53:47.026Z,4.60
2023-02-02T18:56:15.583Z,4.60
2023-02-02T18:58:42.327Z,4.60
2023-02-02T19:01:17.078Z,4.60
2023-02-02T19:03:48.447Z,4.60
2023-02-02T19:06:34.035Z,4.60
2023-02-02T19:09:00.835Z,4.60
2023-02-02T19:11:38.899Z,4.60
2023-02-02T19:14:17.468Z,4.60
2023-02-02T19:16:46.588Z,4.60
2023-02-02T19:19:16.398Z,4.60
2023-02-02T19:21:43.257Z,4.60
2023-02-02T19:24:14.105Z,4.70
2023-02-02T19:26:45.517Z,4.70
2023-02-02T19:29:23.422Z,4.70
2023-02-02T19:31:59.569Z,4.70
2023-02-02T19:34:26.447Z,4.70
2023-02-02T19:36:53.217Z,4.70
2023-02-02T19:39:25.133Z,4.70
2023-02-02T19:41:56.813Z,4.70
2023-02-02T19:44:26.320Z,4.80
2023-02-02T19:46:53.164Z,4.80
2023-02-02T19:49:34.337Z,4.80
2023-02-02T19:52:06.169Z,4.80
2023-02-02T19:54:37.468Z,4.80
2023-02-02T19:59:35.064Z,4.80
2023-02-02T20:02:52.994Z,4.80
2023-02-02T20:05:23.050Z,4.90
2023-02-02T20:08:00.837Z,4.90
2023-02-02T20:10:49.434Z,4.90
2023-02-02T20:13:24.005Z,5.00
2023-02-02T20:15:54.631Z,5.00
2023-02-02T20:18:29.455Z,5.10
2023-02-02T20:20:57.102Z,5.10
2023-02-02T20:23:44.788Z,5.20
2023-02-02T20:26:23.051Z,5.30
2023-02-02T20:28:51.443Z,5.40
2023-02-02T20:31:22.084Z,5.50
2023-02-02T20:33:52.864Z,5.50
2023-02-02T20:36:28.061Z,5.50
2023-02-02T20:38:55.016Z,5.70
2023-02-02T20:41:21.849Z,5.80
2023-02-02T20:43:48.627Z,5.90
2023-02-02T20:46:15.551Z,6.00
2023-02-02T20:48:42.450Z,6.10
2023-02-02T20:53:36.591Z,6.30
2023-02-02T20:56:03.562Z,6.40
2023-02-02T20:58:30.287Z,6.40
2023-02-02T21:00:57.044Z,6.40
2023-02-02T21:03:23.933Z,6.50
2023-02-02T21:05:50.664Z,6.60
2023-02-02T21:08:17.475Z,6.60
2023-02-02T21:10:44.198Z,6.70
2023-02-02T21:13:10.876Z,6.60
2023-02-02T21:15:37.612Z,6.70
2023-02-02T21:18:04.395Z,6.70
2023-02-02T21:20:31.237Z,6.70
2023-02-02T21:22:57.966Z,6.80
2023-02-02T21:25:24.692Z,6.80
2023-02-02T21:27:51.428Z,6.80
2023-02-02T21:30:18.447Z,6.80
2023-02-02T21:32:45.219Z,6.80
2023-02-02T21:35:14.144Z,6.90
2023-02-02T21:37:40.999Z,6.90
2023-02-02T21:40:18.333Z,6.90
2023-02-02T21:42:48.717Z,6.90
2023-02-02T21:45:31.066Z,6.90
2023-02-02T21:48:00.584Z,6.90
2023-02-02T21:50:32.802Z,6.90
2023-02-02T21:53:22.578Z,6.90
2023-02-02T21:56:00.221Z,7.00
2023-02-02T21:58:38.564Z,7.00
2023-02-02T22:01:26.369Z,7.00
2023-02-02T22:03:53.183Z,7.00
2023-02-02T22:06:26.114Z,7.00
2023-02-02T22:09:00.521Z,7.00
2023-02-02T22:11:41.806Z,7.00
2023-02-02T22:14:20.389Z,7.00
2023-02-02T22:16:51.364Z,7.00
2023-02-02T22:19:38.782Z,7.10
2023-02-02T22:22:22.758Z,7.10
2023-02-02T22:25:02.551Z,7.10
2023-02-02T22:27:42.070Z,7.10
2023-02-02T22:30:21.107Z,7.10
2023-02-02T22:32:47.970Z,7.10
2023-02-02T22:35:14.787Z,7.20
2023-02-02T22:37:41.545Z,7.10
2023-02-02T22:40:09.213Z,7.10
2023-02-02T22:42:35.992Z,7.10
2023-02-02T22:45:03.150Z,7.20
2023-02-02T22:49:56.943Z,7.30
2023-02-02T22:52:23.703Z,7.30
2023-02-02T22:54:50.382Z,7.20
2023-02-02T22:57:17.105Z,7.20
2023-02-02T22:59:43.791Z,7.20
2023-02-02T23:02:10.461Z,7.20
2023-02-02T23:04:37.191Z,7.30
2023-02-02T23:07:04.101Z,7.30
2023-02-02T23:09:30.853Z,7.30
2023-02-02T23:11:57.604Z,7.30
2023-02-02T23:14:24.358Z,7.30
2023-02-02T23:16:51.092Z,7.40
2023-02-02T23:19:17.816Z,7.30
2023-02-02T23:21:44.552Z,7.30
2023-02-02T23:24:11.332Z,7.30
2023-02-02T23:26:38.055Z,7.40
2023-02-02T23:29:04.821Z,7.40
2023-02-02T23:31:31.744Z,7.40
2023-02-02T23:33:58.481Z,7.40
2023-02-02T23:36:25.211Z,7.40
2023-02-02T23:38:51.889Z,7.40
2023-02-02T23:41:19.394Z,7.40
2023-02-02T23:43:46.105Z,7.50
2023-02-02T23:46:12.880Z,7.50
2023-02-02T23:48:39.590Z,7.50
2023-02-02T23:51:06.435Z,7.50
2023-02-02T23:53:33.258Z,7.50
2023-02-02T23:55:59.989Z,7.50
2023-02-02T23:58:26.740Z,7.50
